sensor_id;sensor_type;location;lat;lon;timestamp;P1;durP1;ratioP1;P2;durP2;ratioP2
79149;SDS011;68563;45.644;13.782;2023-04-09T00:02:13;0.90;;;0.82;;
79149;SDS011;68563;45.644;13.782;2023-04-09T00:04:39;1.23;;;0.90;;
79149;SDS011;68563;45.644;13.782;2023-04-09T00:07:04;1.42;;;0.80;;
79149;SDS011;68563;45.644;13.782;2023-04-09T00:09:30;1.35;;;0.80;;
79149;SDS011;68563;45.644;13.782;2023-04-09T00:11:56;1.83;;;1.00;;
79149;SDS011;68563;45.644;13.782;2023-04-09T00:14:22;0.80;;;0.73;;
79149;SDS011;68563;45.644;13.782;2023-04-09T00:16:48;0.80;;;0.80;;
79149;SDS011;68563;45.644;13.782;2023-04-09T00:19:13;1.05;;;0.85;;
79149;SDS011;68563;45.644;13.782;2023-04-09T00:21:38;1.98;;;0.90;;
79149;SDS011;68563;45.644;13.782;2023-04-09T00:24:04;1.42;;;0.90;;
79149;SDS011;68563;45.644;13.782;2023-04-09T00:26:30;0.88;;;0.80;;
79149;SDS011;68563;45.644;13.782;2023-04-09T00:28:55;0.73;;;0.73;;
79149;SDS011;68563;45.644;13.782;2023-04-09T00:31:21;0.75;;;0.75;;
79149;SDS011;68563;45.644;13.782;2023-04-09T00:33:46;0.80;;;0.80;;
79149;SDS011;68563;45.644;13.782;2023-04-09T00:36:11;1.02;;;0.80;;
79149;SDS011;68563;45.644;13.782;2023-04-09T00:38:37;1.13;;;1.00;;
79149;SDS011;68563;45.644;13.782;2023-04-09T00:41:02;1.10;;;1.00;;
79149;SDS011;68563;45.644;13.782;2023-04-09T00:43:28;0.85;;;0.80;;
79149;SDS011;68563;45.644;13.782;2023-04-09T00:45:53;1.00;;;0.90;;
79149;SDS011;68563;45.644;13.782;2023-04-09T00:48:19;0.88;;;0.80;;
79149;SDS011;68563;45.644;13.782;2023-04-09T00:50:45;0.73;;;0.70;;
79149;SDS011;68563;45.644;13.782;2023-04-09T00:53:11;0.90;;;0.80;;
79149;SDS011;68563;45.644;13.782;2023-04-09T00:55:38;1.00;;;0.90;;
79149;SDS011;68563;45.644;13.782;2023-04-09T00:58:05;0.98;;;0.80;;
79149;SDS011;68563;45.644;13.782;2023-04-09T01:00:31;1.20;;;1.00;;
79149;SDS011;68563;45.644;13.782;2023-04-09T01:02:56;0.70;;;0.70;;
79149;SDS011;68563;45.644;13.782;2023-04-09T01:06:07;0.73;;;0.70;;
79149;SDS011;68563;45.644;13.782;2023-04-09T01:08:32;1.10;;;0.88;;
79149;SDS011;68563;45.644;13.782;2023-04-09T01:16:33;0.88;;;0.70;;
79149;SDS011;68563;45.644;13.782;2023-04-09T01:22:05;0.60;;;0.60;;
79149;SDS011;68563;45.644;13.782;2023-04-09T01:25:03;1.38;;;0.80;;
79149;SDS011;68563;45.644;13.782;2023-04-09T01:27:41;0.77;;;0.63;;
79149;SDS011;68563;45.644;13.782;2023-04-09T01:30:17;1.10;;;0.85;;
79149;SDS011;68563;45.644;13.782;2023-04-09T01:32:44;0.90;;;0.80;;
79149;SDS011;68563;45.644;13.782;2023-04-09T01:35:10;1.20;;;0.95;;
79149;SDS011;68563;45.644;13.782;2023-04-09T01:37:36;0.80;;;0.80;;
79149;SDS011;68563;45.644;13.782;2023-04-09T01:40:03;0.77;;;0.70;;
79149;SDS011;68563;45.644;13.782;2023-04-09T01:42:29;1.08;;;0.90;;
79149;SDS011;68563;45.644;13.782;2023-04-09T01:44:56;1.30;;;1.00;;
79149;SDS011;68563;45.644;13.782;2023-04-09T01:47:22;1.00;;;0.90;;
79149;SDS011;68563;45.644;13.782;2023-04-09T01:49:48;0.88;;;0.73;;
79149;SDS011;68563;45.644;13.782;2023-04-09T01:52:15;0.95;;;0.85;;
79149;SDS011;68563;45.644;13.782;2023-04-09T01:54:41;0.90;;;0.77;;
79149;SDS011;68563;45.644;13.782;2023-04-09T01:57:07;0.98;;;0.88;;
79149;SDS011;68563;45.644;13.782;2023-04-09T01:59:32;0.80;;;0.70;;
79149;SDS011;68563;45.644;13.782;2023-04-09T02:02:03;1.10;;;1.00;;
79149;SDS011;68563;45.644;13.782;2023-04-09T02:04:38;1.30;;;1.00;;
79149;SDS011;68563;45.644;13.782;2023-04-09T02:09:35;1.25;;;1.10;;
79149;SDS011;68563;45.644;13.782;2023-04-09T02:12:04;1.13;;;1.02;;
79149;SDS011;68563;45.644;13.782;2023-04-09T02:14:31;1.10;;;1.00;;
79149;SDS011;68563;45.644;13.782;2023-04-09T02:16:58;1.02;;;0.90;;
79149;SDS011;68563;45.644;13.782;2023-04-09T02:19:24;1.10;;;1.00;;
79149;SDS011;68563;45.644;13.782;2023-04-09T02:21:49;1.58;;;1.30;;
79149;SDS011;68563;45.644;13.782;2023-04-09T02:24:14;1.38;;;1.10;;
79149;SDS011;68563;45.644;13.782;2023-04-09T02:26:40;1.45;;;1.10;;
79149;SDS011;68563;45.644;13.782;2023-04-09T02:29:05;1.60;;;1.15;;
79149;SDS011;68563;45.644;13.782;2023-04-09T02:31:31;1.52;;;1.30;;
79149;SDS011;68563;45.644;13.782;2023-04-09T02:33:56;1.42;;;1.30;;
79149;SDS011;68563;45.644;13.782;2023-04-09T02:36:21;1.70;;;1.30;;
79149;SDS011;68563;45.644;13.782;2023-04-09T02:38:47;1.70;;;1.50;;
79149;SDS011;68563;45.644;13.782;2023-04-09T02:41:12;2.05;;;1.33;;
79149;SDS011;68563;45.644;13.782;2023-04-09T02:43:38;1.45;;;1.10;;
79149;SDS011;68563;45.644;13.782;2023-04-09T02:46:03;1.50;;;1.33;;
79149;SDS011;68563;45.644;13.782;2023-04-09T02:48:28;2.47;;;1.40;;
79149;SDS011;68563;45.644;13.782;2023-04-09T02:50:54;2.60;;;1.45;;
79149;SDS011;68563;45.644;13.782;2023-04-09T02:53:19;2.45;;;1.38;;
79149;SDS011;68563;45.644;13.782;2023-04-09T02:55:47;1.58;;;1.30;;
79149;SDS011;68563;45.644;13.782;2023-04-09T02:58:13;1.40;;;1.10;;
79149;SDS011;68563;45.644;13.782;2023-04-09T03:00:38;1.45;;;1.20;;
79149;SDS011;68563;45.644;13.782;2023-04-09T03:03:04;1.60;;;1.45;;
79149;SDS011;68563;45.644;13.782;2023-04-09T03:05:29;1.60;;;1.20;;
79149;SDS011;68563;45.644;13.782;2023-04-09T03:07:54;1.75;;;1.45;;
79149;SDS011;68563;45.644;13.782;2023-04-09T03:10:20;1.85;;;1.40;;
79149;SDS011;68563;45.644;13.782;2023-04-09T03:12:46;1.83;;;1.38;;
79149;SDS011;68563;45.644;13.782;2023-04-09T03:15:11;1.40;;;1.20;;
79149;SDS011;68563;45.644;13.782;2023-04-09T03:17:37;2.00;;;1.48;;
79149;SDS011;68563;45.644;13.782;2023-04-09T03:20:03;2.17;;;1.50;;
79149;SDS011;68563;45.644;13.782;2023-04-09T03:22:34;2.33;;;1.40;;
79149;SDS011;68563;45.644;13.782;2023-04-09T03:27:25;2.07;;;1.70;;
79149;SDS011;68563;45.644;13.782;2023-04-09T03:29:54;1.58;;;1.45;;
79149;SDS011;68563;45.644;13.782;2023-04-09T03:32:20;1.98;;;1.58;;
79149;SDS011;68563;45.644;13.782;2023-04-09T03:34:45;1.88;;;1.70;;
79149;SDS011;68563;45.644;13.782;2023-04-09T03:37:10;1.67;;;1.52;;
79149;SDS011;68563;45.644;13.782;2023-04-09T03:39:36;2.03;;;1.80;;
79149;SDS011;68563;45.644;13.782;2023-04-09T03:42:01;1.80;;;1.60;;
79149;SDS011;68563;45.644;13.782;2023-04-09T03:44:27;1.90;;;1.60;;
79149;SDS011;68563;45.644;13.782;2023-04-09T03:46:52;1.83;;;1.58;;
79149;SDS011;68563;45.644;13.782;2023-04-09T03:49:17;2.17;;;1.40;;
79149;SDS011;68563;45.644;13.782;2023-04-09T03:51:43;1.90;;;1.58;;
79149;SDS011;68563;45.644;13.782;2023-04-09T03:54:08;2.17;;;1.52;;
79149;SDS011;68563;45.644;13.782;2023-04-09T03:56:34;2.08;;;1.70;;
79149;SDS011;68563;45.644;13.782;2023-04-09T03:58:59;1.80;;;1.60;;
79149;SDS011;68563;45.644;13.782;2023-04-09T04:01:25;1.88;;;1.40;;
79149;SDS011;68563;45.644;13.782;2023-04-09T04:03:50;1.88;;;1.50;;
79149;SDS011;68563;45.644;13.782;2023-04-09T04:06:15;1.92;;;1.60;;
79149;SDS011;68563;45.644;13.782;2023-04-09T04:08:41;2.25;;;1.83;;
79149;SDS011;68563;45.644;13.782;2023-04-09T04:11:06;2.13;;;1.80;;
79149;SDS011;68563;45.644;13.782;2023-04-09T04:13:31;1.70;;;1.42;;
79149;SDS011;68563;45.644;13.782;2023-04-09T04:15:57;1.90;;;1.67;;
79149;SDS011;68563;45.644;13.782;2023-04-09T04:18:22;2.05;;;1.70;;
79149;SDS011;68563;45.644;13.782;2023-04-09T04:20:48;1.55;;;1.40;;
79149;SDS011;68563;45.644;13.782;2023-04-09T04:23:13;1.67;;;1.30;;
79149;SDS011;68563;45.644;13.782;2023-04-09T04:25:41;2.40;;;1.70;;
79149;SDS011;68563;45.644;13.782;2023-04-09T04:28:07;1.40;;;1.30;;
79149;SDS011;68563;45.644;13.782;2023-04-09T04:30:33;2.00;;;1.40;;
79149;SDS011;68563;45.644;13.782;2023-04-09T04:32:58;1.80;;;1.60;;
79149;SDS011;68563;45.644;13.782;2023-04-09T04:35:23;2.03;;;1.50;;
79149;SDS011;68563;45.644;13.782;2023-04-09T04:37:49;1.90;;;1.45;;
79149;SDS011;68563;45.644;13.782;2023-04-09T04:40:17;1.60;;;1.40;;
79149;SDS011;68563;45.644;13.782;2023-04-09T04:42:43;1.40;;;1.20;;
79149;SDS011;68563;45.644;13.782;2023-04-09T04:45:08;1.85;;;1.52;;
79149;SDS011;68563;45.644;13.782;2023-04-09T04:47:34;1.95;;;1.60;;
79149;SDS011;68563;45.644;13.782;2023-04-09T04:49:59;2.15;;;1.60;;
79149;SDS011;68563;45.644;13.782;2023-04-09T04:52:25;1.80;;;1.60;;
79149;SDS011;68563;45.644;13.782;2023-04-09T04:54:51;1.83;;;1.48;;
79149;SDS011;68563;45.644;13.782;2023-04-09T04:57:16;1.98;;;1.58;;
79149;SDS011;68563;45.644;13.782;2023-04-09T04:59:41;2.22;;;1.70;;
79149;SDS011;68563;45.644;13.782;2023-04-09T05:02:07;1.98;;;1.50;;
79149;SDS011;68563;45.644;13.782;2023-04-09T05:04:33;1.73;;;1.40;;
79149;SDS011;68563;45.644;13.782;2023-04-09T05:06:58;1.45;;;1.25;;
79149;SDS011;68563;45.644;13.782;2023-04-09T05:09:24;1.80;;;1.50;;
79149;SDS011;68563;45.644;13.782;2023-04-09T05:11:49;2.25;;;1.42;;
79149;SDS011;68563;45.644;13.782;2023-04-09T05:14:15;2.50;;;1.50;;
79149;SDS011;68563;45.644;13.782;2023-04-09T05:16:40;2.50;;;1.67;;
79149;SDS011;68563;45.644;13.782;2023-04-09T05:19:06;1.50;;;1.33;;
79149;SDS011;68563;45.644;13.782;2023-04-09T05:21:31;1.52;;;1.30;;
79149;SDS011;68563;45.644;13.782;2023-04-09T05:23:57;1.30;;;1.20;;
79149;SDS011;68563;45.644;13.782;2023-04-09T05:26:23;1.67;;;1.50;;
79149;SDS011;68563;45.644;13.782;2023-04-09T05:28:48;1.92;;;1.40;;
79149;SDS011;68563;45.644;13.782;2023-04-09T05:31:14;1.45;;;1.08;;
79149;SDS011;68563;45.644;13.782;2023-04-09T05:33:40;1.73;;;1.38;;
79149;SDS011;68563;45.644;13.782;2023-04-09T05:36:06;1.50;;;1.30;;
79149;SDS011;68563;45.644;13.782;2023-04-09T05:38:32;1.60;;;1.25;;
79149;SDS011;68563;45.644;13.782;2023-04-09T05:40:58;1.50;;;1.20;;
79149;SDS011;68563;45.644;13.782;2023-04-09T05:43:23;1.60;;;1.30;;
79149;SDS011;68563;45.644;13.782;2023-04-09T05:45:49;1.83;;;1.50;;
79149;SDS011;68563;45.644;13.782;2023-04-09T05:48:15;1.27;;;1.08;;
79149;SDS011;68563;45.644;13.782;2023-04-09T05:50:47;1.40;;;1.30;;
79149;SDS011;68563;45.644;13.782;2023-04-09T05:53:13;2.42;;;1.35;;
79149;SDS011;68563;45.644;13.782;2023-04-09T05:55:38;1.42;;;1.33;;
79149;SDS011;68563;45.644;13.782;2023-04-09T05:58:16;1.50;;;1.30;;
79149;SDS011;68563;45.644;13.782;2023-04-09T06:00:45;1.60;;;1.40;;
79149;SDS011;68563;45.644;13.782;2023-04-09T06:03:11;1.85;;;1.23;;
79149;SDS011;68563;45.644;13.782;2023-04-09T06:05:36;1.50;;;1.27;;
79149;SDS011;68563;45.644;13.782;2023-04-09T06:08:01;1.65;;;1.40;;
79149;SDS011;68563;45.644;13.782;2023-04-09T06:10:27;2.00;;;1.63;;
79149;SDS011;68563;45.644;13.782;2023-04-09T06:12:52;1.50;;;1.35;;
79149;SDS011;68563;45.644;13.782;2023-04-09T06:15:18;1.80;;;1.45;;
79149;SDS011;68563;45.644;13.782;2023-04-09T06:17:44;2.10;;;1.40;;
79149;SDS011;68563;45.644;13.782;2023-04-09T06:20:10;1.20;;;1.10;;
79149;SDS011;68563;45.644;13.782;2023-04-09T06:22:36;1.80;;;1.40;;
79149;SDS011;68563;45.644;13.782;2023-04-09T06:25:01;1.70;;;1.58;;
79149;SDS011;68563;45.644;13.782;2023-04-09T06:27:27;1.92;;;1.40;;
79149;SDS011;68563;45.644;13.782;2023-04-09T06:29:52;2.42;;;1.60;;
79149;SDS011;68563;45.644;13.782;2023-04-09T06:32:18;1.95;;;1.33;;
79149;SDS011;68563;45.644;13.782;2023-04-09T06:34:43;2.10;;;1.50;;
79149;SDS011;68563;45.644;13.782;2023-04-09T06:37:08;2.03;;;1.30;;
79149;SDS011;68563;45.644;13.782;2023-04-09T06:39:34;1.85;;;1.45;;
79149;SDS011;68563;45.644;13.782;2023-04-09T06:41:59;1.40;;;1.23;;
79149;SDS011;68563;45.644;13.782;2023-04-09T06:44:25;1.55;;;1.20;;
79149;SDS011;68563;45.644;13.782;2023-04-09T06:46:50;1.63;;;1.33;;
79149;SDS011;68563;45.644;13.782;2023-04-09T06:49:15;1.30;;;1.20;;
79149;SDS011;68563;45.644;13.782;2023-04-09T06:51:41;1.50;;;1.20;;
79149;SDS011;68563;45.644;13.782;2023-04-09T06:54:06;1.35;;;1.13;;
79149;SDS011;68563;45.644;13.782;2023-04-09T06:56:32;1.40;;;1.30;;
79149;SDS011;68563;45.644;13.782;2023-04-09T06:58:58;1.92;;;1.58;;
79149;SDS011;68563;45.644;13.782;2023-04-09T07:01:23;2.00;;;1.58;;
79149;SDS011;68563;45.644;13.782;2023-04-09T07:03:49;2.00;;;1.50;;
79149;SDS011;68563;45.644;13.782;2023-04-09T07:06:15;1.85;;;1.40;;
79149;SDS011;68563;45.644;13.782;2023-04-09T07:08:40;1.77;;;1.50;;
79149;SDS011;68563;45.644;13.782;2023-04-09T07:11:05;1.60;;;1.50;;
79149;SDS011;68563;45.644;13.782;2023-04-09T07:13:31;2.00;;;1.80;;
79149;SDS011;68563;45.644;13.782;2023-04-09T07:15:57;2.08;;;1.88;;
79149;SDS011;68563;45.644;13.782;2023-04-09T07:18:22;2.20;;;1.60;;
79149;SDS011;68563;45.644;13.782;2023-04-09T07:20:47;2.25;;;1.75;;
79149;SDS011;68563;45.644;13.782;2023-04-09T07:23:13;2.10;;;1.83;;
79149;SDS011;68563;45.644;13.782;2023-04-09T07:25:38;2.20;;;1.90;;
79149;SDS011;68563;45.644;13.782;2023-04-09T07:28:03;2.90;;;2.58;;
79149;SDS011;68563;45.644;13.782;2023-04-09T07:30:29;2.83;;;2.40;;
79149;SDS011;68563;45.644;13.782;2023-04-09T07:32:54;2.40;;;1.85;;
79149;SDS011;68563;45.644;13.782;2023-04-09T07:35:20;2.13;;;1.90;;
79149;SDS011;68563;45.644;13.782;2023-04-09T07:37:45;2.90;;;2.22;;
79149;SDS011;68563;45.644;13.782;2023-04-09T07:40:11;2.40;;;1.90;;
79149;SDS011;68563;45.644;13.782;2023-04-09T07:42:37;2.85;;;2.10;;
79149;SDS011;68563;45.644;13.782;2023-04-09T07:45:03;2.60;;;2.17;;
79149;SDS011;68563;45.644;13.782;2023-04-09T07:47:29;2.42;;;2.00;;
79149;SDS011;68563;45.644;13.782;2023-04-09T07:49:55;2.60;;;1.90;;
79149;SDS011;68563;45.644;13.782;2023-04-09T07:52:20;2.83;;;2.17;;
79149;SDS011;68563;45.644;13.782;2023-04-09T07:54:46;2.58;;;2.13;;
79149;SDS011;68563;45.644;13.782;2023-04-09T07:57:11;2.30;;;2.05;;
79149;SDS011;68563;45.644;13.782;2023-04-09T07:59:36;2.47;;;1.88;;
79149;SDS011;68563;45.644;13.782;2023-04-09T08:02:02;2.67;;;2.17;;
79149;SDS011;68563;45.644;13.782;2023-04-09T08:04:27;2.92;;;2.58;;
79149;SDS011;68563;45.644;13.782;2023-04-09T08:06:53;2.35;;;2.10;;
79149;SDS011;68563;45.644;13.782;2023-04-09T08:09:19;2.47;;;1.80;;
79149;SDS011;68563;45.644;13.782;2023-04-09T08:11:45;2.55;;;2.00;;
79149;SDS011;68563;45.644;13.782;2023-04-09T08:14:11;2.60;;;1.80;;
79149;SDS011;68563;45.644;13.782;2023-04-09T08:16:38;2.45;;;2.03;;
79149;SDS011;68563;45.644;13.782;2023-04-09T08:19:06;2.67;;;2.10;;
79149;SDS011;68563;45.644;13.782;2023-04-09T08:21:32;2.83;;;2.20;;
79149;SDS011;68563;45.644;13.782;2023-04-09T08:23:57;2.50;;;2.05;;
79149;SDS011;68563;45.644;13.782;2023-04-09T08:26:28;2.65;;;2.30;;
79149;SDS011;68563;45.644;13.782;2023-04-09T08:28:53;2.90;;;2.30;;
79149;SDS011;68563;45.644;13.782;2023-04-09T08:31:19;2.20;;;1.70;;
79149;SDS011;68563;45.644;13.782;2023-04-09T08:33:44;2.53;;;2.20;;
79149;SDS011;68563;45.644;13.782;2023-04-09T08:36:11;2.33;;;2.13;;
79149;SDS011;68563;45.644;13.782;2023-04-09T08:38:36;2.78;;;2.10;;
79149;SDS011;68563;45.644;13.782;2023-04-09T08:41:01;2.80;;;1.95;;
79149;SDS011;68563;45.644;13.782;2023-04-09T08:43:27;2.22;;;1.90;;
79149;SDS011;68563;45.644;13.782;2023-04-09T08:45:52;2.58;;;2.10;;
79149;SDS011;68563;45.644;13.782;2023-04-09T08:48:21;3.10;;;2.30;;
79149;SDS011;68563;45.644;13.782;2023-04-09T08:50:48;3.30;;;2.33;;
79149;SDS011;68563;45.644;13.782;2023-04-09T08:53:14;2.58;;;2.03;;
79149;SDS011;68563;45.644;13.782;2023-04-09T08:55:43;2.83;;;2.30;;
79149;SDS011;68563;45.644;13.782;2023-04-09T08:58:09;2.40;;;2.15;;
79149;SDS011;68563;45.644;13.782;2023-04-09T09:00:35;2.55;;;2.00;;
79149;SDS011;68563;45.644;13.782;2023-04-09T09:03:03;2.67;;;2.20;;
79149;SDS011;68563;45.644;13.782;2023-04-09T09:05:36;2.60;;;2.15;;
79149;SDS011;68563;45.644;13.782;2023-04-09T09:08:10;2.50;;;2.13;;
79149;SDS011;68563;45.644;13.782;2023-04-09T09:10:40;2.47;;;2.15;;
79149;SDS011;68563;45.644;13.782;2023-04-09T09:13:16;2.78;;;2.13;;
79149;SDS011;68563;45.644;13.782;2023-04-09T09:15:41;2.40;;;1.92;;
79149;SDS011;68563;45.644;13.782;2023-04-09T09:18:07;4.78;;;2.10;;
79149;SDS011;68563;45.644;13.782;2023-04-09T09:20:33;2.75;;;2.10;;
79149;SDS011;68563;45.644;13.782;2023-04-09T09:22:58;2.65;;;2.15;;
79149;SDS011;68563;45.644;13.782;2023-04-09T09:25:24;2.83;;;2.10;;
79149;SDS011;68563;45.644;13.782;2023-04-09T09:27:50;3.72;;;1.95;;
79149;SDS011;68563;45.644;13.782;2023-04-09T09:30:20;2.33;;;1.90;;
79149;SDS011;68563;45.644;13.782;2023-04-09T09:32:52;4.53;;;2.28;;
79149;SDS011;68563;45.644;13.782;2023-04-09T09:35:19;3.35;;;2.53;;
79149;SDS011;68563;45.644;13.782;2023-04-09T09:37:44;2.75;;;2.30;;
79149;SDS011;68563;45.644;13.782;2023-04-09T09:40:10;4.55;;;2.17;;
79149;SDS011;68563;45.644;13.782;2023-04-09T09:42:55;3.95;;;2.47;;
79149;SDS011;68563;45.644;13.782;2023-04-09T09:47:48;5.43;;;2.13;;
79149;SDS011;68563;45.644;13.782;2023-04-09T09:50:13;4.68;;;2.42;;
79149;SDS011;68563;45.644;13.782;2023-04-09T09:52:39;2.55;;;2.05;;
79149;SDS011;68563;45.644;13.782;2023-04-09T09:55:09;3.00;;;2.50;;
79149;SDS011;68563;45.644;13.782;2023-04-09T09:57:40;4.57;;;2.60;;
79149;SDS011;68563;45.644;13.782;2023-04-09T10:00:09;2.90;;;2.05;;
79149;SDS011;68563;45.644;13.782;2023-04-09T10:02:46;2.25;;;2.00;;
79149;SDS011;68563;45.644;13.782;2023-04-09T10:05:17;3.22;;;2.35;;
79149;SDS011;68563;45.644;13.782;2023-04-09T10:07:48;3.42;;;2.22;;
79149;SDS011;68563;45.644;13.782;2023-04-09T10:10:15;2.53;;;2.00;;
79149;SDS011;68563;45.644;13.782;2023-04-09T10:12:41;3.38;;;2.17;;
79149;SDS011;68563;45.644;13.782;2023-04-09T10:15:09;3.03;;;2.40;;
79149;SDS011;68563;45.644;13.782;2023-04-09T10:17:34;2.90;;;2.28;;
79149;SDS011;68563;45.644;13.782;2023-04-09T10:20:10;3.88;;;2.30;;
79149;SDS011;68563;45.644;13.782;2023-04-09T10:22:41;2.95;;;2.20;;
79149;SDS011;68563;45.644;13.782;2023-04-09T10:25:12;3.50;;;2.40;;
79149;SDS011;68563;45.644;13.782;2023-04-09T10:27:37;2.72;;;2.30;;
79149;SDS011;68563;45.644;13.782;2023-04-09T10:30:03;4.10;;;2.58;;
79149;SDS011;68563;45.644;13.782;2023-04-09T10:32:33;2.60;;;2.30;;
79149;SDS011;68563;45.644;13.782;2023-04-09T10:35:00;3.08;;;2.38;;
79149;SDS011;68563;45.644;13.782;2023-04-09T10:37:27;2.90;;;2.30;;
79149;SDS011;68563;45.644;13.782;2023-04-09T10:39:53;3.70;;;2.28;;
79149;SDS011;68563;45.644;13.782;2023-04-09T10:42:25;3.25;;;2.28;;
79149;SDS011;68563;45.644;13.782;2023-04-09T10:45:09;3.13;;;2.55;;
79149;SDS011;68563;45.644;13.782;2023-04-09T10:47:40;3.45;;;2.50;;
79149;SDS011;68563;45.644;13.782;2023-04-09T10:50:19;3.47;;;2.80;;
79149;SDS011;68563;45.644;13.782;2023-04-09T10:52:52;2.95;;;2.47;;
79149;SDS011;68563;45.644;13.782;2023-04-09T10:55:38;3.08;;;2.47;;
79149;SDS011;68563;45.644;13.782;2023-04-09T10:58:05;3.08;;;2.60;;
79149;SDS011;68563;45.644;13.782;2023-04-09T11:00:38;3.30;;;2.70;;
79149;SDS011;68563;45.644;13.782;2023-04-09T11:03:21;3.03;;;2.55;;
79149;SDS011;68563;45.644;13.782;2023-04-09T11:06:01;3.05;;;2.60;;
79149;SDS011;68563;45.644;13.782;2023-04-09T11:08:30;3.30;;;2.60;;
79149;SDS011;68563;45.644;13.782;2023-04-09T11:10:57;4.05;;;2.60;;
79149;SDS011;68563;45.644;13.782;2023-04-09T11:13:25;3.65;;;2.83;;
79149;SDS011;68563;45.644;13.782;2023-04-09T11:15:50;2.50;;;2.25;;
79149;SDS011;68563;45.644;13.782;2023-04-09T11:18:19;2.92;;;2.30;;
79149;SDS011;68563;45.644;13.782;2023-04-09T11:20:46;3.70;;;2.40;;
79149;SDS011;68563;45.644;13.782;2023-04-09T11:23:12;2.67;;;2.17;;
79149;SDS011;68563;45.644;13.782;2023-04-09T11:25:38;3.50;;;2.72;;
79149;SDS011;68563;45.644;13.782;2023-04-09T11:28:03;4.43;;;2.35;;
79149;SDS011;68563;45.644;13.782;2023-04-09T11:30:30;3.17;;;2.33;;
79149;SDS011;68563;45.644;13.782;2023-04-09T11:32:55;3.25;;;2.50;;
79149;SDS011;68563;45.644;13.782;2023-04-09T11:35:21;2.95;;;2.40;;
79149;SDS011;68563;45.644;13.782;2023-04-09T11:37:48;3.20;;;2.28;;
79149;SDS011;68563;45.644;13.782;2023-04-09T11:42:44;3.03;;;2.35;;
79149;SDS011;68563;45.644;13.782;2023-04-09T11:45:11;2.60;;;2.22;;
79149;SDS011;68563;45.644;13.782;2023-04-09T11:47:40;2.45;;;1.83;;
79149;SDS011;68563;45.644;13.782;2023-04-09T11:50:07;2.92;;;2.05;;
79149;SDS011;68563;45.644;13.782;2023-04-09T11:52:33;2.60;;;2.03;;
79149;SDS011;68563;45.644;13.782;2023-04-09T11:55:02;2.67;;;2.10;;
79149;SDS011;68563;45.644;13.782;2023-04-09T11:57:41;2.97;;;2.30;;
79149;SDS011;68563;45.644;13.782;2023-04-09T12:00:09;3.60;;;2.20;;
79149;SDS011;68563;45.644;13.782;2023-04-09T12:02:36;3.30;;;2.20;;
79149;SDS011;68563;45.644;13.782;2023-04-09T12:05:03;2.90;;;1.90;;
79149;SDS011;68563;45.644;13.782;2023-04-09T12:07:32;2.13;;;1.80;;
79149;SDS011;68563;45.644;13.782;2023-04-09T12:10:02;2.80;;;2.20;;
79149;SDS011;68563;45.644;13.782;2023-04-09T12:12:29;2.22;;;1.70;;
79149;SDS011;68563;45.644;13.782;2023-04-09T12:14:54;2.20;;;1.80;;
79149;SDS011;68563;45.644;13.782;2023-04-09T12:17:22;2.10;;;1.70;;
79149;SDS011;68563;45.644;13.782;2023-04-09T12:19:48;2.30;;;1.80;;
79149;SDS011;68563;45.644;13.782;2023-04-09T12:22:13;2.72;;;2.00;;
79149;SDS011;68563;45.644;13.782;2023-04-09T12:24:39;3.78;;;2.67;;
79149;SDS011;68563;45.644;13.782;2023-04-09T12:27:04;2.55;;;2.08;;
79149;SDS011;68563;45.644;13.782;2023-04-09T12:29:30;2.42;;;1.92;;
79149;SDS011;68563;45.644;13.782;2023-04-09T12:31:57;2.03;;;1.70;;
79149;SDS011;68563;45.644;13.782;2023-04-09T12:34:22;2.53;;;1.73;;
79149;SDS011;68563;45.644;13.782;2023-04-09T12:36:48;2.33;;;1.85;;
79149;SDS011;68563;45.644;13.782;2023-04-09T12:39:13;2.85;;;2.13;;
79149;SDS011;68563;45.644;13.782;2023-04-09T12:41:38;3.08;;;2.17;;
79149;SDS011;68563;45.644;13.782;2023-04-09T12:44:04;2.35;;;2.05;;
79149;SDS011;68563;45.644;13.782;2023-04-09T12:46:31;2.50;;;1.88;;
79149;SDS011;68563;45.644;13.782;2023-04-09T12:48:56;4.03;;;2.15;;
79149;SDS011;68563;45.644;13.782;2023-04-09T12:51:22;2.47;;;2.05;;
79149;SDS011;68563;45.644;13.782;2023-04-09T12:53:47;2.13;;;1.88;;
79149;SDS011;68563;45.644;13.782;2023-04-09T12:56:13;2.67;;;2.05;;
79149;SDS011;68563;45.644;13.782;2023-04-09T12:58:39;2.55;;;2.03;;
79149;SDS011;68563;45.644;13.782;2023-04-09T13:01:04;3.13;;;1.90;;
79149;SDS011;68563;45.644;13.782;2023-04-09T13:03:30;4.95;;;1.92;;
79149;SDS011;68563;45.644;13.782;2023-04-09T13:05:55;2.20;;;1.95;;
79149;SDS011;68563;45.644;13.782;2023-04-09T13:08:21;2.40;;;1.95;;
79149;SDS011;68563;45.644;13.782;2023-04-09T13:10:46;2.30;;;2.00;;
79149;SDS011;68563;45.644;13.782;2023-04-09T13:13:12;2.83;;;2.13;;
79149;SDS011;68563;45.644;13.782;2023-04-09T13:15:38;2.03;;;1.80;;
79149;SDS011;68563;45.644;13.782;2023-04-09T13:18:04;2.05;;;1.80;;
79149;SDS011;68563;45.644;13.782;2023-04-09T13:20:29;2.00;;;1.70;;
79149;SDS011;68563;45.644;13.782;2023-04-09T13:22:55;2.28;;;1.90;;
79149;SDS011;68563;45.644;13.782;2023-04-09T13:25:21;3.42;;;1.70;;
79149;SDS011;68563;45.644;13.782;2023-04-09T13:27:46;2.28;;;2.08;;
79149;SDS011;68563;45.644;13.782;2023-04-09T13:30:12;2.35;;;1.80;;
79149;SDS011;68563;45.644;13.782;2023-04-09T13:32:37;2.30;;;1.65;;
79149;SDS011;68563;45.644;13.782;2023-04-09T13:35:02;2.53;;;1.88;;
79149;SDS011;68563;45.644;13.782;2023-04-09T13:37:28;2.05;;;1.60;;
79149;SDS011;68563;45.644;13.782;2023-04-09T13:39:54;2.78;;;2.05;;
79149;SDS011;68563;45.644;13.782;2023-04-09T13:42:19;2.20;;;1.98;;
79149;SDS011;68563;45.644;13.782;2023-04-09T13:44:45;2.47;;;1.95;;
79149;SDS011;68563;45.644;13.782;2023-04-09T13:47:11;2.38;;;1.92;;
79149;SDS011;68563;45.644;13.782;2023-04-09T13:49:37;2.15;;;1.85;;
79149;SDS011;68563;45.644;13.782;2023-04-09T13:52:03;2.65;;;1.95;;
79149;SDS011;68563;45.644;13.782;2023-04-09T13:54:29;2.55;;;2.08;;
79149;SDS011;68563;45.644;13.782;2023-04-09T13:56:55;2.92;;;2.00;;
79149;SDS011;68563;45.644;13.782;2023-04-09T13:59:21;2.42;;;2.00;;
79149;SDS011;68563;45.644;13.782;2023-04-09T14:01:46;2.03;;;1.75;;
79149;SDS011;68563;45.644;13.782;2023-04-09T14:04:11;2.10;;;1.58;;
79149;SDS011;68563;45.644;13.782;2023-04-09T14:06:37;2.33;;;1.63;;
79149;SDS011;68563;45.644;13.782;2023-04-09T14:09:02;2.75;;;2.00;;
79149;SDS011;68563;45.644;13.782;2023-04-09T14:11:28;1.85;;;1.58;;
79149;SDS011;68563;45.644;13.782;2023-04-09T14:13:53;2.42;;;1.77;;
79149;SDS011;68563;45.644;13.782;2023-04-09T14:16:19;2.20;;;1.73;;
79149;SDS011;68563;45.644;13.782;2023-04-09T14:18:45;1.63;;;1.40;;
79149;SDS011;68563;45.644;13.782;2023-04-09T14:21:10;2.53;;;1.70;;
79149;SDS011;68563;45.644;13.782;2023-04-09T14:23:36;2.60;;;2.00;;
79149;SDS011;68563;45.644;13.782;2023-04-09T14:26:03;2.13;;;1.70;;
79149;SDS011;68563;45.644;13.782;2023-04-09T14:28:30;2.42;;;2.00;;
79149;SDS011;68563;45.644;13.782;2023-04-09T14:30:56;1.95;;;1.60;;
79149;SDS011;68563;45.644;13.782;2023-04-09T14:33:23;2.30;;;1.92;;
79149;SDS011;68563;45.644;13.782;2023-04-09T14:35:49;2.40;;;2.05;;
79149;SDS011;68563;45.644;13.782;2023-04-09T14:38:14;2.30;;;2.03;;
79149;SDS011;68563;45.644;13.782;2023-04-09T14:40:40;2.70;;;2.10;;
79149;SDS011;68563;45.644;13.782;2023-04-09T14:43:06;2.00;;;1.50;;
79149;SDS011;68563;45.644;13.782;2023-04-09T14:45:31;2.10;;;1.70;;
79149;SDS011;68563;45.644;13.782;2023-04-09T14:47:57;4.82;;;1.90;;
79149;SDS011;68563;45.644;13.782;2023-04-09T14:50:22;2.30;;;1.90;;